Time;durP1;ratioP1;P1;durP2;ratioP2;P2;SDS_P1;SDS_P2;PMS_P1;PMS_P2;Temp;Humidity;BMP_temperature;BMP_pressure;BME280_temperature;BME280_humidity;BME280_pressure;Samples;Min_cycle;Max_cycle;Signal;HPM_P1;HPM_P2
2022/07/06 00:02:20;;;;;;;0.00;0.00;;;16.80;99.90;;;;;;5060604;28;20403;-67
2022/07/06 00:04:46;;;;;;;0.00;0.00;;;16.70;99.90;;;;;;5086931;28;20040;-67
2022/07/06 00:07:13;;;;;;;0.10;0.10;;;16.80;99.90;;;;;;5090231;28;20055;-67
2022/07/06 00:09:40;;;;;;;0.00;0.00;;;16.80;99.90;;;;;;5087869;28;20643;-67
2022/07/06 00:12:05;;;;;;;0.00;0.00;;;16.70;99.90;;;;;;5074965;28;20123;-67
2022/07/06 00:14:31;;;;;;;0.00;0.00;;;16.80;99.90;;;;;;5070074;28;20567;-67
2022/07/06 00:16:56;;;;;;;0.00;0.00;;;16.70;99.90;;;;;;5069985;28;20131;-67
2022/07/06 00:19:22;;;;;;;0.03;0.03;;;16.70;99.90;;;;;;5078405;28;20054;-67
2022/07/06 00:21:47;;;;;;;0.00;0.00;;;16.70;99.90;;;;;;5090374;28;20127;-67
2022/07/06 00:24:13;;;;;;;0.00;0.00;;;16.70;99.90;;;;;;5087621;28;20044;-67
2022/07/06 00:26:39;;;;;;;0.00;0.00;;;16.70;99.90;;;;;;5089925;28;20055;-67
2022/07/06 00:29:04;;;;;;;0.00;0.00;;;16.70;99.90;;;;;;5088913;28;20040;-67
2022/07/06 00:31:30;;;;;;;0.00;0.00;;;16.80;99.90;;;;;;5067120;28;20047;-67
2022/07/06 00:33:55;;;;;;;0.00;0.00;;;16.70;99.90;;;;;;5090056;28;20120;-67
2022/07/06 00:36:21;;;;;;;0.00;0.00;;;16.70;99.90;;;;;;5071400;28;20455;-67
2022/07/06 00:38:46;;;;;;;0.32;0.30;;;16.60;99.90;;;;;;5057007;28;20545;-68
2022/07/06 00:41:13;;;;;;;0.03;0.03;;;16.60;99.90;;;;;;5059209;28;20139;-67
2022/07/06 00:43:55;;;;;;;0.00;0.00;;;16.50;99.90;;;;;;5089836;28;20048;-67
2022/07/06 00:46:25;;;;;;;0.10;0.10;;;16.60;99.90;;;;;;5070801;28;20130;-67
2022/07/06 00:48:50;;;;;;;0.00;0.00;;;16.60;99.90;;;;;;5070610;28;20051;-67
2022/07/06 00:51:17;;;;;;;0.00;0.00;;;16.60;99.90;;;;;;5071490;28;20048;-67
2022/07/06 00:53:43;;;;;;;0.00;0.00;;;16.60;99.90;;;;;;5075639;28;20445;-67
2022/07/06 00:56:09;;;;;;;6.07;0.40;;;16.50;99.90;;;;;;5083612;28;20053;-67
2022/07/06 00:58:35;;;;;;;0.00;0.00;;;16.50;99.90;;;;;;5074662;28;20497;-67
2022/07/06 01:01:01;;;;;;;0.00;0.00;;;16.60;99.90;;;;;;5084992;28;20044;-67
2022/07/06 01:03:26;;;;;;;0.00;0.00;;;16.60;99.90;;;;;;5052856;28;20491;-67
2022/07/06 01:05:52;;;;;;;0.00;0.00;;;16.60;99.90;;;;;;5070435;28;20449;-67
2022/07/06 01:08:18;;;;;;;0.00;0.00;;;16.60;99.90;;;;;;5065837;28;20047;-67
2022/07/06 01:10:43;;;;;;;0.00;0.00;;;16.50;99.90;;;;;;5088233;28;20048;-67
2022/07/06 01:13:09;;;;;;;0.10;0.10;;;16.50;99.90;;;;;;5068789;28;20087;-67
2022/07/06 01:15:35;;;;;;;0.00;0.00;;;16.50;99.90;;;;;;5069546;28;20044;-67
2022/07/06 01:18:01;;;;;;;0.00;0.00;;;16.50;99.90;;;;;;5089042;28;20114;-67
2022/07/06 01:20:28;;;;;;;0.10;0.10;;;16.50;99.90;;;;;;5074894;28;20120;-67
2022/07/06 01:22:56;;;;;;;0.00;0.00;;;16.50;99.90;;;;;;5080567;28;20101;-67
2022/07/06 01:25:22;;;;;;;0.10;0.10;;;16.60;99.90;;;;;;5070342;28;20047;-67
2022/07/06 01:27:48;;;;;;;0.00;0.00;;;16.50;99.90;;;;;;5088469;28;20055;-67
2022/07/06 01:30:17;;;;;;;0.00;0.00;;;16.50;99.90;;;;;;5076671;28;20068;-67
2022/07/06 01:32:43;;;;;;;6.07;0.85;;;16.60;99.90;;;;;;5086271;28;20105;-67
2022/07/06 01:35:10;;;;;;;0.00;0.00;;;16.60;99.90;;;;;;5070183;28;20043;-67
2022/07/06 01:37:36;;;;;;;0.00;0.00;;;16.50;99.90;;;;;;5057433;28;20052;-67
2022/07/06 01:40:05;;;;;;;0.10;0.10;;;16.50;99.90;;;;;;5076007;28;20044;-67
2022/07/06 01:42:31;;;;;;;0.10;0.10;;;16.40;99.90;;;;;;5070166;28;20097;-67
2022/07/06 01:44:57;;;;;;;0.10;0.10;;;16.40;99.90;;;;;;5071059;28;20048;-67
2022/07/06 01:47:23;;;;;;;0.10;0.10;;;16.40;99.90;;;;;;5066614;28;20080;-67
2022/07/06 01:49:48;;;;;;;0.20;0.20;;;16.30;99.90;;;;;;5068047;28;20079;-67
2022/07/06 01:52:14;;;;;;;0.00;0.00;;;16.30;99.90;;;;;;5049139;28;20049;-67
2022/07/06 01:54:40;;;;;;;0.08;0.08;;;16.30;99.90;;;;;;5077599;28;20407;-67
2022/07/06 01:57:05;;;;;;;0.00;0.00;;;16.40;99.90;;;;;;5066690;28;20052;-67
2022/07/06 01:59:31;;;;;;;0.00;0.00;;;16.30;99.90;;;;;;5085146;28;20039;-67
2022/07/06 02:01:56;;;;;;;0.00;0.00;;;16.30;99.90;;;;;;5088975;28;20036;-67
2022/07/06 02:04:22;;;;;;;0.00;0.00;;;16.30;99.90;;;;;;5087687;28;20032;-67
2022/07/06 02:06:47;;;;;;;0.00;0.00;;;16.30;99.90;;;;;;5064039;28;20559;-67
2022/07/06 02:09:13;;;;;;;0.10;0.10;;;16.30;99.90;;;;;;5072865;28;20033;-67
2022/07/06 02:11:39;;;;;;;0.00;0.00;;;16.30;99.90;;;;;;5073338;28;20121;-67
2022/07/06 02:14:04;;;;;;;6.03;0.52;;;16.30;99.90;;;;;;5093033;28;20125;-67
2022/07/06 02:16:30;;;;;;;0.05;0.05;;;16.30;99.90;;;;;;5074694;28;20060;-67
2022/07/06 02:18:55;;;;;;;0.08;0.08;;;16.30;99.90;;;;;;5074943;28;20047;-67
2022/07/06 02:21:21;;;;;;;0.00;0.00;;;16.20;99.90;;;;;;5058307;28;20052;-67
2022/07/06 02:23:46;;;;;;;0.10;0.10;;;16.20;99.90;;;;;;5094813;28;20051;-67
2022/07/06 02:26:12;;;;;;;0.10;0.10;;;16.20;99.90;;;;;;5095176;28;20088;-67
2022/07/06 02:28:37;;;;;;;0.00;0.00;;;16.20;99.90;;;;;;5078870;28;20047;-67
2022/07/06 02:31:03;;;;;;;0.05;0.05;;;16.20;99.90;;;;;;5045384;28;20053;-67
2022/07/06 02:33:29;;;;;;;0.47;0.47;;;16.20;99.90;;;;;;5054747;28;20413;-67
2022/07/06 02:35:54;;;;;;;0.00;0.00;;;16.20;99.90;;;;;;5070543;28;20044;-67
2022/07/06 02:38:20;;;;;;;0.00;0.00;;;16.10;99.90;;;;;;5088398;28;20041;-67
2022/07/06 02:40:46;;;;;;;0.00;0.00;;;16.10;99.90;;;;;;5055875;28;20036;-67
2022/07/06 02:43:11;;;;;;;0.05;0.05;;;16.00;99.90;;;;;;5080463;28;20040;-67
2022/07/06 02:45:37;;;;;;;0.00;0.00;;;15.90;99.90;;;;;;5093860;28;20453;-67
2022/07/06 02:48:02;;;;;;;0.35;0.35;;;15.80;99.90;;;;;;5091094;28;20044;-67
2022/07/06 02:50:28;;;;;;;0.10;0.10;;;15.80;99.90;;;;;;5094303;28;20398;-67
2022/07/06 02:52:55;;;;;;;0.10;0.10;;;15.70;99.90;;;;;;5077068;28;20466;-67
2022/07/06 02:55:21;;;;;;;1.55;0.30;;;15.70;99.90;;;;;;5094321;28;20085;-67
2022/07/06 02:57:46;;;;;;;0.08;0.08;;;15.70;99.90;;;;;;5078001;28;20074;-67
2022/07/06 03:00:12;;;;;;;0.00;0.00;;;15.50;99.90;;;;;;5070154;28;20040;-67
2022/07/06 03:02:38;;;;;;;0.00;0.00;;;15.40;99.90;;;;;;5058938;28;20056;-67
2022/07/06 03:05:04;;;;;;;0.00;0.00;;;15.30;99.90;;;;;;5073727;28;20040;-67
2022/07/06 03:07:30;;;;;;;0.15;0.15;;;15.30;99.90;;;;;;5076490;28;20055;-68
2022/07/06 03:09:55;;;;;;;0.10;0.10;;;15.20;99.90;;;;;;5090088;28;20040;-67
2022/07/06 03:12:21;;;;;;;0.10;0.10;;;15.10;99.90;;;;;;5058561;28;20064;-67
2022/07/06 03:14:46;;;;;;;0.00;0.00;;;15.10;99.90;;;;;;5060410;28;20048;-67
2022/07/06 03:17:12;;;;;;;0.00;0.00;;;15.00;99.90;;;;;;5091438;28;20040;-67
2022/07/06 03:19:38;;;;;;;0.10;0.10;;;15.00;99.90;;;;;;5094478;28;20100;-67
2022/07/06 03:22:04;;;;;;;0.10;0.10;;;14.90;99.90;;;;;;5083966;28;20487;-67
2022/07/06 03:24:29;;;;;;;0.13;0.13;;;14.80;99.90;;;;;;5052352;28;20052;-67
2022/07/06 03:26:55;;;;;;;0.10;0.10;;;14.90;99.90;;;;;;5049193;28;20045;-67
2022/07/06 03:29:20;;;;;;;0.50;0.50;;;14.80;99.90;;;;;;5050837;28;20056;-67
2022/07/06 03:31:46;;;;;;;0.00;0.00;;;14.80;99.90;;;;;;5085983;28;20427;-67
2022/07/06 03:34:12;;;;;;;0.10;0.10;;;14.70;99.90;;;;;;5090713;28;20043;-67
2022/07/06 03:36:38;;;;;;;0.10;0.10;;;14.70;99.90;;;;;;5090088;28;20048;-67
2022/07/06 03:39:04;;;;;;;0.00;0.00;;;14.70;99.90;;;;;;5049936;28;20440;-67
2022/07/06 03:41:30;;;;;;;0.75;0.60;;;14.60;99.90;;;;;;5082630;28;20233;-67
2022/07/06 03:43:56;;;;;;;0.10;0.10;;;14.60;99.90;;;;;;5090572;28;20040;-67
2022/07/06 03:46:21;;;;;;;0.00;0.00;;;14.50;99.90;;;;;;5085668;28;20121;-67
2022/07/06 03:48:47;;;;;;;0.05;0.05;;;14.50;99.90;;;;;;5050425;28;20045;-67
2022/07/06 03:51:12;;;;;;;0.10;0.10;;;14.60;99.90;;;;;;5068125;28;20043;-67
2022/07/06 03:53:38;;;;;;;0.00;0.00;;;14.60;99.90;;;;;;5070714;28;20447;-67
2022/07/06 03:58:48;;;;;;;0.00;0.00;;;14.60;99.90;;;;;;5078728;28;20048;-67
2022/07/06 04:01:14;;;;;;;4.78;1.35;;;14.50;99.90;;;;;;5090474;28;20048;-67
2022/07/06 04:03:40;;;;;;;0.08;0.08;;;14.50;99.90;;;;;;5071265;28;20047;-67
2022/07/06 04:06:05;;;;;;;0.08;0.08;;;14.50;99.90;;;;;;5070297;28;20507;-67
2022/07/06 04:08:31;;;;;;;0.10;0.10;;;14.50;99.90;;;;;;5080245;28;20292;-67
2022/07/06 04:10:56;;;;;;;0.10;0.10;;;14.70;99.90;;;;;;5077398;28;20048;-67
2022/07/06 04:13:23;;;;;;;0.10;0.10;;;14.70;99.90;;;;;;5078251;28;20059;-67
2022/07/06 04:15:49;;;;;;;0.00;0.00;;;14.70;99.90;;;;;;5074118;28;20052;-67
2022/07/06 04:18:14;;;;;;;0.30;0.15;;;14.80;99.90;;;;;;5060368;28;20047;-67
2022/07/06 04:20:40;;;;;;;0.00;0.00;;;14.90;99.90;;;;;;5086886;28;20044;-67
2022/07/06 04:23:05;;;;;;;0.77;0.77;;;14.90;99.90;;;;;;5090100;28;20463;-67
2022/07/06 04:25:31;;;;;;;0.10;0.10;;;15.00;99.90;;;;;;5083594;28;20222;-67
2022/07/06 04:27:56;;;;;;;0.13;0.13;;;15.10;99.90;;;;;;5032356;28;20044;-67
2022/07/06 04:30:22;;;;;;;0.10;0.10;;;15.00;99.90;;;;;;5068751;28;20386;-67
2022/07/06 04:32:48;;;;;;;0.00;0.00;;;15.10;99.90;;;;;;5071769;28;20663;-67
2022/07/06 04:35:13;;;;;;;0.10;0.10;;;15.10;99.90;;;;;;5089851;28;20044;-67
2022/07/06 04:37:39;;;;;;;0.10;0.10;;;15.10;99.90;;;;;;5085891;28;20040;-67
2022/07/06 04:40:05;;;;;;;0.08;0.08;;;15.10;99.90;;;;;;5074195;28;20495;-67
2022/07/06 04:42:30;;;;;;;0.10;0.10;;;15.10;99.90;;;;;;5071348;28;20590;-67
2022/07/06 04:44:56;;;;;;;0.00;0.00;;;15.10;99.90;;;;;;5087731;28;20055;-67
2022/07/06 04:47:22;;;;;;;0.00;0.00;;;15.20;99.90;;;;;;5066028;28;20054;-67
2022/07/06 04:49:47;;;;;;;0.00;0.00;;;15.10;99.90;;;;;;5090007;28;20036;-67
2022/07/06 04:52:13;;;;;;;0.10;0.10;;;15.20;99.90;;;;;;5070893;28;20131;-67
2022/07/06 04:54:38;;;;;;;11.80;2.25;;;15.20;99.90;;;;;;5086379;28;20070;-67
2022/07/06 04:57:04;;;;;;;0.00;0.00;;;15.20;99.90;;;;;;5079780;28;20048;-67
2022/07/06 04:59:30;;;;;;;0.10;0.10;;;15.30;99.90;;;;;;5054328;28;20144;-67
2022/07/06 05:01:55;;;;;;;0.25;0.22;;;15.30;99.90;;;;;;5089470;28;20039;-67
2022/07/06 05:04:22;;;;;;;0.10;0.10;;;15.40;99.90;;;;;;5070755;28;20051;-67
2022/07/06 05:06:47;;;;;;;0.10;0.10;;;15.40;99.90;;;;;;5087978;28;20131;-67
2022/07/06 05:09:13;;;;;;;0.20;0.20;;;15.50;99.90;;;;;;5083479;28;20111;-67
2022/07/06 05:11:39;;;;;;;0.10;0.10;;;15.60;99.90;;;;;;5081740;28;20047;-67
2022/07/06 05:14:05;;;;;;;0.10;0.10;;;15.70;99.90;;;;;;5059195;28;20047;-67
2022/07/06 05:16:31;;;;;;;0.10;0.10;;;15.70;99.90;;;;;;5051137;28;20161;-67
2022/07/06 05:18:56;;;;;;;0.10;0.10;;;15.80;99.90;;;;;;5083895;28;20119;-67
2022/07/06 05:21:22;;;;;;;0.10;0.10;;;15.90;99.90;;;;;;5079622;28;20120;-67
2022/07/06 05:23:48;;;;;;;0.10;0.10;;;15.90;99.90;;;;;;5089243;28;20126;-68
2022/07/06 05:26:13;;;;;;;0.05;0.05;;;16.00;99.90;;;;;;5060796;28;20076;-67
2022/07/06 05:28:39;;;;;;;0.05;0.05;;;16.00;99.90;;;;;;5085976;28;20210;-67
2022/07/06 05:31:05;;;;;;;0.00;0.00;;;16.10;99.90;;;;;;5048256;28;20139;-67
2022/07/06 05:33:30;;;;;;;0.05;0.05;;;16.10;99.90;;;;;;5056967;28;20031;-67
2022/07/06 05:35:56;;;;;;;0.10;0.10;;;16.20;99.90;;;;;;5079481;28;20405;-67
2022/07/06 05:38:21;;;;;;;0.08;0.08;;;16.20;99.90;;;;;;5048334;28;20047;-67
2022/07/06 05:40:47;;;;;;;0.10;0.10;;;16.20;99.90;;;;;;5057184;28;20520;-67
2022/07/06 05:43:12;;;;;;;0.50;0.50;;;16.20;99.90;;;;;;5069280;28;20043;-67
2022/07/06 05:45:38;;;;;;;0.10;0.10;;;16.20;99.90;;;;;;5087726;28;20105;-67
2022/07/06 05:50:48;;;;;;;0.00;0.00;;;16.30;99.90;;;;;;5061763;28;20052;-67
2022/07/06 05:53:13;;;;;;;1.85;1.10;;;16.20;99.90;;;;;;5067937;28;20044;-67
2022/07/06 05:55:39;;;;;;;0.08;0.08;;;16.10;99.90;;;;;;5054840;28;20056;-67
2022/07/06 05:58:04;;;;;;;0.10;0.10;;;16.10;99.90;;;;;;5088337;28;20066;-67
2022/07/06 06:00:30;;;;;;;0.00;0.00;;;16.10;99.90;;;;;;5067892;28;20182;-67
2022/07/06 06:02:57;;;;;;;0.00;0.00;;;16.10;99.90;;;;;;5084708;28;20859;-67
2022/07/06 06:05:23;;;;;;;0.00;0.00;;;16.10;99.90;;;;;;5088056;28;20040;-67
2022/07/06 06:07:50;;;;;;;0.08;0.08;;;16.20;99.90;;;;;;5054389;28;20055;-67
2022/07/06 06:10:17;;;;;;;0.10;0.10;;;16.30;99.90;;;;;;5069389;28;20127;-67
2022/07/06 06:12:44;;;;;;;0.10;0.10;;;16.40;99.90;;;;;;5071012;28;20389;-67
2022/07/06 06:15:10;;;;;;;0.10;0.10;;;16.40;99.90;;;;;;5075342;28;20118;-67
2022/07/06 06:17:36;;;;;;;0.00;0.00;;;16.40;99.90;;;;;;5069565;28;20052;-67
2022/07/06 06:20:04;;;;;;;0.00;0.00;;;16.50;99.90;;;;;;5087584;28;20073;-67
2022/07/06 06:22:29;;;;;;;0.00;0.00;;;16.60;99.90;;;;;;5048705;28;20127;-67
2022/07/06 06:24:55;;;;;;;0.10;0.10;;;16.50;99.90;;;;;;5067957;28;20194;-67
2022/07/06 06:27:21;;;;;;;0.00;0.00;;;16.60;99.90;;;;;;5083154;28;20044;-68
2022/07/06 06:29:46;;;;;;;0.30;0.30;;;16.60;99.90;;;;;;5087981;28;20036;-67
2022/07/06 06:32:13;;;;;;;0.00;0.00;;;16.70;99.90;;;;;;5083746;28;20067;-67
2022/07/06 06:34:41;;;;;;;0.22;0.22;;;16.60;99.90;;;;;;5087771;28;20119;-67
2022/07/06 06:37:07;;;;;;;0.10;0.10;;;16.70;99.90;;;;;;5076499;28;20043;-67
2022/07/06 06:39:32;;;;;;;0.08;0.08;;;16.70;99.90;;;;;;5068816;28;20395;-68
2022/07/06 06:41:58;;;;;;;0.00;0.00;;;16.70;99.90;;;;;;5069561;28;20052;-68
2022/07/06 06:44:24;;;;;;;0.00;0.00;;;16.70;99.90;;;;;;5063379;28;20041;-67
2022/07/06 06:46:51;;;;;;;0.00;0.00;;;16.80;99.90;;;;;;5038344;28;20140;-67
2022/07/06 06:49:17;;;;;;;0.00;0.00;;;16.80;99.90;;;;;;5075622;28;20044;-67
2022/07/06 06:51:44;;;;;;;0.00;0.00;;;16.90;99.90;;;;;;5065802;28;20049;-68
2022/07/06 06:54:09;;;;;;;0.00;0.00;;;16.90;99.90;;;;;;5079173;28;20071;-68
2022/07/06 06:56:35;;;;;;;0.10;0.10;;;17.00;99.90;;;;;;5084017;28;20048;-68
2022/07/06 06:59:01;;;;;;;0.00;0.00;;;17.10;99.90;;;;;;5069243;28;20105;-68
2022/07/06 07:01:27;;;;;;;0.40;0.40;;;17.20;99.90;;;;;;5084446;28;20089;-68
2022/07/06 07:03:54;;;;;;;0.08;0.08;;;17.40;99.90;;;;;;5091759;28;20040;-68
2022/07/06 07:06:20;;;;;;;0.00;0.00;;;17.30;99.90;;;;;;5061463;28;20059;-68
2022/07/06 07:08:46;;;;;;;0.10;0.10;;;17.30;99.90;;;;;;5063333;28;20408;-67
2022/07/06 07:11:11;;;;;;;0.03;0.03;;;17.40;99.90;;;;;;5086813;28;20098;-68
2022/07/06 07:13:37;;;;;;;0.00;0.00;;;17.40;99.90;;;;;;5056933;28;20046;-68
2022/07/06 07:16:02;;;;;;;0.10;0.10;;;17.30;99.90;;;;;;5051497;28;20139;-68
2022/07/06 07:18:28;;;;;;;0.10;0.10;;;17.40;99.90;;;;;;5055860;28;20090;-68
2022/07/06 07:20:53;;;;;;;0.30;0.30;;;17.50;99.90;;;;;;5091095;28;20125;-68
2022/07/06 07:23:19;;;;;;;0.00;0.00;;;17.60;99.90;;;;;;5060012;28;20102;-68
2022/07/06 07:25:45;;;;;;;0.00;0.00;;;17.70;99.90;;;;;;5071501;28;20044;-68
2022/07/06 07:28:10;;;;;;;6.20;0.50;;;17.70;99.90;;;;;;5046153;28;20048;-68
2022/07/06 07:30:36;;;;;;;0.00;0.00;;;17.60;99.90;;;;;;5068278;28;20130;-68
2022/07/06 07:33:01;;;;;;;0.00;0.00;;;17.40;99.90;;;;;;5088445;28;20043;-68
2022/07/06 07:35:27;;;;;;;0.03;0.03;;;17.40;99.90;;;;;;5060911;28;20043;-68
2022/07/06 07:37:53;;;;;;;0.15;0.15;;;17.40;99.90;;;;;;5071064;28;20139;-68
2022/07/06 07:40:19;;;;;;;0.00;0.00;;;17.40;99.90;;;;;;5075404;28;20085;-68
2022/07/06 07:42:45;;;;;;;0.60;0.60;;;17.40;99.90;;;;;;5091175;28;20059;-68
2022/07/06 07:45:11;;;;;;;0.00;0.00;;;17.50;99.90;;;;;;5069225;28;20044;-68
2022/07/06 07:47:37;;;;;;;0.00;0.00;;;17.60;99.90;;;;;;5066748;28;20041;-68
2022/07/06 07:50:02;;;;;;;0.05;0.05;;;17.80;99.90;;;;;;5070704;28;20040;-67
2022/07/06 07:52:28;;;;;;;0.00;0.00;;;17.90;99.90;;;;;;5077778;28;20531;-68
2022/07/06 07:54:54;;;;;;;0.43;0.28;;;17.90;99.90;;;;;;5090505;28;20040;-68
2022/07/06 07:57:19;;;;;;;0.75;0.65;;;17.80;99.90;;;;;;5090000;28;20307;-68
2022/07/06 07:59:46;;;;;;;0.00;0.00;;;17.70;99.90;;;;;;5070639;28;20041;-67
2022/07/06 08:02:11;;;;;;;0.45;0.45;;;17.80;99.90;;;;;;5069691;28;20040;-68
2022/07/06 08:04:37;;;;;;;0.00;0.00;;;17.90;99.90;;;;;;5069908;28;20032;-68
2022/07/06 08:07:03;;;;;;;0.08;0.08;;;17.90;99.90;;;;;;5089935;28;20044;-68
2022/07/06 08:09:28;;;;;;;0.00;0.00;;;18.00;99.90;;;;;;5087875;28;20040;-67
2022/07/06 08:11:54;;;;;;;0.00;0.00;;;18.00;99.90;;;;;;5049493;28;20497;-68
2022/07/06 08:14:19;;;;;;;0.00;0.00;;;18.10;99.90;;;;;;5036079;28;20040;-68
2022/07/06 08:16:45;;;;;;;0.10;0.10;;;18.30;99.90;;;;;;5069934;28;20049;-68
2022/07/06 08:19:14;;;;;;;0.10;0.10;;;18.30;99.90;;;;;;5073966;28;20036;-67
2022/07/06 08:21:40;;;;;;;4.75;0.80;;;18.20;99.90;;;;;;5089966;28;20055;-67
2022/07/06 08:24:06;;;;;;;0.00;0.00;;;18.10;99.90;;;;;;5079928;28;20036;-68
2022/07/06 08:26:32;;;;;;;0.10;0.10;;;18.00;99.90;;;;;;5089968;28;20449;-67
2022/07/06 08:28:57;;;;;;;0.00;0.00;;;17.80;99.90;;;;;;5090453;28;20063;-68
2022/07/06 08:31:23;;;;;;;0.10;0.10;;;17.80;99.90;;;;;;5089401;28;20075;-67
2022/07/06 08:33:48;;;;;;;0.00;0.00;;;17.80;99.90;;;;;;5075057;28;20373;-67
2022/07/06 08:36:14;;;;;;;0.08;0.08;;;18.00;99.90;;;;;;5073401;28;20048;-67
2022/07/06 08:38:40;;;;;;;0.00;0.00;;;18.20;99.90;;;;;;5080951;28;20122;-67
2022/07/06 08:41:06;;;;;;;0.00;0.00;;;18.20;99.90;;;;;;5086327;28;20058;-68
2022/07/06 08:43:34;;;;;;;0.00;0.00;;;18.20;99.90;;;;;;5074390;28;20522;-68
2022/07/06 08:46:00;;;;;;;0.03;0.03;;;18.30;99.90;;;;;;5045597;28;20484;-67
2022/07/06 08:48:31;;;;;;;0.10;0.10;;;18.50;99.90;;;;;;5062144;28;20041;-68
2022/07/06 08:50:58;;;;;;;0.00;0.00;;;18.60;99.90;;;;;;5062984;28;20046;-68
2022/07/06 08:53:24;;;;;;;0.08;0.08;;;18.60;99.90;;;;;;5070157;28;20036;-67
2022/07/06 08:55:50;;;;;;;0.10;0.10;;;18.50;99.90;;;;;;5068358;28;20048;-67
2022/07/06 08:58:16;;;;;;;0.00;0.00;;;18.50;99.90;;;;;;5039681;28;20063;-68
2022/07/06 09:00:42;;;;;;;0.00;0.00;;;18.60;99.90;;;;;;5041310;28;20053;-68
2022/07/06 09:03:11;;;;;;;0.52;0.43;;;18.70;99.90;;;;;;5086426;28;20487;-67
2022/07/06 09:05:39;;;;;;;0.08;0.08;;;18.70;99.90;;;;;;5080342;28;20065;-67
2022/07/06 09:08:05;;;;;;;0.00;0.00;;;18.90;99.90;;;;;;5071680;28;20051;-67
2022/07/06 09:10:30;;;;;;;0.38;0.38;;;18.90;99.90;;;;;;5070950;28;20676;-67
2022/07/06 09:13:08;;;;;;;0.00;0.00;;;18.80;99.90;;;;;;5047027;28;20040;-67
2022/07/06 09:15:35;;;;;;;0.08;0.08;;;18.80;99.90;;;;;;5066951;28;20052;-67
2022/07/06 09:18:01;;;;;;;0.00;0.00;;;18.70;99.90;;;;;;5066589;28;20123;-68
2022/07/06 09:20:26;;;;;;;0.00;0.00;;;18.90;99.90;;;;;;5056130;28;20036;-67
2022/07/06 09:22:59;;;;;;;0.00;0.00;;;19.00;99.90;;;;;;5054948;28;20049;-67
2022/07/06 09:25:25;;;;;;;0.00;0.00;;;19.20;99.90;;;;;;5052505;28;20041;-67
2022/07/06 09:27:54;;;;;;;0.00;0.00;;;19.20;99.90;;;;;;5083748;28;20048;-67
2022/07/06 09:30:24;;;;;;;0.45;0.45;;;19.10;99.90;;;;;;5064488;28;20044;-67
2022/07/06 09:32:51;;;;;;;0.40;0.40;;;19.20;99.90;;;;;;5045154;28;20057;-67
2022/07/06 09:35:29;;;;;;;0.08;0.08;;;19.20;99.90;;;;;;5048452;28;20384;-68
2022/07/06 09:38:05;;;;;;;0.10;0.10;;;19.30;99.90;;;;;;5056917;28;20063;-67
2022/07/06 09:40:34;;;;;;;0.00;0.00;;;19.40;99.90;;;;;;5065619;28;20045;-67
2022/07/06 09:43:15;;;;;;;0.00;0.00;;;19.40;99.90;;;;;;5046830;28;20166;-67
2022/07/06 09:45:46;;;;;;;0.10;0.10;;;19.50;99.90;;;;;;5048635;28;20052;-68
2022/07/06 09:48:22;;;;;;;0.20;0.20;;;19.70;99.90;;;;;;5072037;28;20123;-67
2022/07/06 09:50:51;;;;;;;0.00;0.00;;;19.80;99.90;;;;;;5087160;28;20071;-67
2022/07/06 09:53:17;;;;;;;0.00;0.00;;;19.90;99.90;;;;;;5078843;28;20048;-67
2022/07/06 09:56:04;;;;;;;0.10;0.10;;;20.20;99.90;;;;;;5053264;28;20044;-67
2022/07/06 09:58:30;;;;;;;0.10;0.10;;;20.40;99.90;;;;;;5068217;28;20090;-67
2022/07/06 10:00:56;;;;;;;0.00;0.00;;;20.30;99.90;;;;;;5057190;28;20135;-67
2022/07/06 10:03:22;;;;;;;0.00;0.00;;;20.30;99.90;;;;;;5069460;28;20135;-67
2022/07/06 10:05:49;;;;;;;0.00;0.00;;;20.50;99.90;;;;;;5088735;28;20101;-67
2022/07/06 10:08:16;;;;;;;26.40;1.13;;;20.50;99.90;;;;;;5087840;28;20475;-67
2022/07/06 10:10:42;;;;;;;0.10;0.10;;;20.70;99.90;;;;;;5081967;28;20076;-67
2022/07/06 10:13:09;;;;;;;0.00;0.00;;;20.80;99.90;;;;;;5084808;28;20403;-67
2022/07/06 10:15:37;;;;;;;0.10;0.10;;;21.10;99.90;;;;;;5084619;28;20037;-67
2022/07/06 10:18:05;;;;;;;0.00;0.00;;;21.40;99.90;;;;;;5088516;28;20063;-67
2022/07/06 10:20:34;;;;;;;0.00;0.00;;;21.40;99.90;;;;;;5080940;28;20052;-67
2022/07/06 10:23:01;;;;;;;0.00;0.00;;;21.70;99.90;;;;;;5085207;28;20044;-67
2022/07/06 10:25:27;;;;;;;0.75;0.70;;;21.90;99.90;;;;;;5088006;28;20055;-68
2022/07/06 10:27:54;;;;;;;0.05;0.05;;;21.90;99.90;;;;;;5067582;28;20623;-68
2022/07/06 10:30:21;;;;;;;0.00;0.00;;;21.70;99.90;;;;;;5065512;28;20071;-68
2022/07/06 10:32:48;;;;;;;0.00;0.00;;;21.50;99.90;;;;;;5071563;28;20044;-67
2022/07/06 10:35:15;;;;;;;0.00;0.00;;;21.60;99.90;;;;;;5080465;28;20072;-67
2022/07/06 10:37:41;;;;;;;0.17;0.17;;;21.60;99.90;;;;;;5091799;28;20082;-67
2022/07/06 10:43:02;;;;;;;0.00;0.00;;;21.20;99.90;;;;;;5073109;28;20141;-67
2022/07/06 10:45:27;;;;;;;0.00;0.00;;;21.20;99.90;;;;;;5073913;28;20488;-67
2022/07/06 10:48:11;;;;;;;0.95;0.28;;;21.30;99.90;;;;;;5088266;28;20044;-67
2022/07/06 10:50:56;;;;;;;0.00;0.00;;;21.20;99.90;;;;;;5051723;28;20102;-67
2022/07/06 10:53:32;;;;;;;0.00;0.00;;;21.50;99.90;;;;;;5070749;28;20119;-67
2022/07/06 10:55:58;;;;;;;0.10;0.10;;;21.30;99.90;;;;;;5048495;28;20052;-67
2022/07/06 10:58:50;;;;;;;0.00;0.00;;;21.00;99.90;;;;;;5091165;28;20054;-67
2022/07/06 11:01:18;;;;;;;0.00;0.00;;;21.30;99.90;;;;;;5058237;28;20053;-67
2022/07/06 11:03:56;;;;;;;0.00;0.00;;;21.40;99.90;;;;;;5062808;28;20049;-67
2022/07/06 11:06:26;;;;;;;0.00;0.00;;;21.20;99.90;;;;;;5062071;28;20484;-67
2022/07/06 11:08:56;;;;;;;0.00;0.00;;;21.20;99.90;;;;;;5065404;28;20275;-67
2022/07/06 11:11:31;;;;;;;0.00;0.00;;;21.20;99.90;;;;;;5062053;28;20056;-67
2022/07/06 11:14:14;;;;;;;0.00;0.00;;;21.30;99.90;;;;;;5079576;28;20476;-67
2022/07/06 11:17:00;;;;;;;0.30;0.30;;;21.40;99.90;;;;;;5052806;28;20048;-67
2022/07/06 11:19:26;;;;;;;0.10;0.10;;;21.50;99.90;;;;;;5088234;28;20055;-67
2022/07/06 11:22:08;;;;;;;0.00;0.00;;;21.20;99.90;;;;;;5091530;28;20048;-67
2022/07/06 11:24:36;;;;;;;0.07;0.07;;;21.10;99.90;;;;;;5084182;28;20050;-67
2022/07/06 11:27:03;;;;;;;0.00;0.00;;;21.00;99.90;;;;;;5090268;28;20056;-67
2022/07/06 11:29:30;;;;;;;0.00;0.00;;;21.10;99.90;;;;;;5083780;28;20044;-67
2022/07/06 11:31:58;;;;;;;0.10;0.10;;;21.40;99.90;;;;;;5085624;28;20071;-67
2022/07/06 11:34:29;;;;;;;0.10;0.10;;;21.40;99.90;;;;;;5083463;28;20037;-67
2022/07/06 11:36:57;;;;;;;0.00;0.00;;;21.70;99.90;;;;;;5059641;28;20052;-67
2022/07/06 11:39:26;;;;;;;0.00;0.00;;;21.60;99.90;;;;;;5058972;28;20350;-67
2022/07/06 11:41:51;;;;;;;0.00;0.00;;;21.80;99.90;;;;;;5065480;28;20102;-67
2022/07/06 11:44:17;;;;;;;0.20;0.20;;;21.70;99.90;;;;;;5072290;28;20440;-67
2022/07/06 11:46:43;;;;;;;0.00;0.00;;;21.90;99.90;;;;;;5069949;28;20060;-67
2022/07/06 11:49:09;;;;;;;0.28;0.28;;;22.10;99.90;;;;;;5070560;28;20037;-67
2022/07/06 11:51:36;;;;;;;0.00;0.00;;;21.90;99.90;;;;;;5076042;28;20039;-67
2022/07/06 11:54:11;;;;;;;0.00;0.00;;;21.70;99.90;;;;;;5086007;28;20559;-67
2022/07/06 11:56:37;;;;;;;0.00;0.00;;;21.70;99.90;;;;;;5075031;28;20047;-66
2022/07/06 11:59:03;;;;;;;0.00;0.00;;;21.50;99.90;;;;;;5061956;28;20052;-67
2022/07/06 12:01:31;;;;;;;0.25;0.25;;;21.50;99.90;;;;;;5049174;28;20044;-67
2022/07/06 12:04:07;;;;;;;0.03;0.03;;;21.50;99.90;;;;;;5058242;28;20033;-67
2022/07/06 12:06:32;;;;;;;0.20;0.15;;;21.30;99.90;;;;;;5061394;28;20044;-67
2022/07/06 12:09:00;;;;;;;0.00;0.00;;;21.20;99.90;;;;;;5050904;28;20056;-67
2022/07/06 12:11:32;;;;;;;0.00;0.00;;;21.10;99.90;;;;;;5069214;28;20078;-67
2022/07/06 12:14:00;;;;;;;0.00;0.00;;;21.00;99.90;;;;;;5064861;28;20066;-67
2022/07/06 12:16:35;;;;;;;0.00;0.00;;;21.00;99.90;;;;;;5031242;28;20064;-67
2022/07/06 12:19:03;;;;;;;0.00;0.00;;;21.00;99.90;;;;;;5068679;28;20040;-67
2022/07/06 12:21:29;;;;;;;0.00;0.00;;;21.00;99.90;;;;;;5060730;28;20402;-67
2022/07/06 12:23:55;;;;;;;0.20;0.20;;;21.00;99.90;;;;;;5075631;28;20068;-67
2022/07/06 12:26:25;;;;;;;0.00;0.00;;;20.90;99.90;;;;;;5089296;28;20083;-67
2022/07/06 12:29:13;;;;;;;0.00;0.00;;;20.80;99.90;;;;;;5069609;28;20404;-67
2022/07/06 12:31:44;;;;;;;0.13;0.13;;;20.80;99.90;;;;;;5069666;28;20052;-67
2022/07/06 12:34:18;;;;;;;0.00;0.00;;;20.80;99.90;;;;;;5048852;28;20420;-68
2022/07/06 12:36:54;;;;;;;0.00;0.00;;;20.90;99.90;;;;;;5066984;28;20106;-67
2022/07/06 12:39:22;;;;;;;0.03;0.03;;;21.00;99.90;;;;;;5069013;28;20083;-67
2022/07/06 12:41:52;;;;;;;0.05;0.05;;;21.10;99.90;;;;;;5076426;28;20492;-67
2022/07/06 12:44:20;;;;;;;0.00;0.00;;;21.20;99.90;;;;;;5067556;28;20389;-67
2022/07/06 12:46:47;;;;;;;0.00;0.00;;;21.20;99.90;;;;;;5068000;28;20050;-68
2022/07/06 12:49:20;;;;;;;0.00;0.00;;;21.40;99.90;;;;;;5088021;28;20040;-67
2022/07/06 12:52:07;;;;;;;0.00;0.00;;;21.30;99.90;;;;;;5063701;28;20484;-67
2022/07/06 12:54:41;;;;;;;0.77;0.43;;;21.20;99.90;;;;;;5048011;28;20053;-67
2022/07/06 12:57:14;;;;;;;0.00;0.00;;;21.10;99.90;;;;;;5050230;28;20048;-67